sensor_id;sensor_type;location;lat;lon;timestamp;P1;durP1;ratioP1;P2;durP2;ratioP2
74614;SDS011;63121;51.458;-0.110;2022-09-20T00:01:08;8.38;;;2.88;;
74614;SDS011;63121;51.458;-0.110;2022-09-20T00:03:37;7.32;;;2.67;;
74614;SDS011;63121;51.458;-0.110;2022-09-20T00:06:05;8.63;;;2.80;;
74614;SDS011;63121;51.458;-0.110;2022-09-20T00:08:32;8.55;;;2.95;;
74614;SDS011;63121;51.458;-0.110;2022-09-20T00:11:02;7.18;;;2.70;;
74614;SDS011;63121;51.458;-0.110;2022-09-20T00:13:30;7.88;;;2.85;;
74614;SDS011;63121;51.458;-0.110;2022-09-20T00:15:56;6.75;;;2.47;;
74614;SDS011;63121;51.458;-0.110;2022-09-20T00:18:22;8.77;;;2.80;;
74614;SDS011;63121;51.458;-0.110;2022-09-20T00:20:48;8.30;;;3.50;;
74614;SDS011;63121;51.458;-0.110;2022-09-20T00:23:15;7.40;;;2.80;;
74614;SDS011;63121;51.458;-0.110;2022-09-20T00:25:41;8.35;;;2.80;;
74614;SDS011;63121;51.458;-0.110;2022-09-20T00:28:07;8.13;;;3.05;;
74614;SDS011;63121;51.458;-0.110;2022-09-20T00:30:34;7.28;;;2.83;;
74614;SDS011;63121;51.458;-0.110;2022-09-20T00:33:00;8.40;;;3.00;;
74614;SDS011;63121;51.458;-0.110;2022-09-20T00:35:26;6.53;;;2.45;;
74614;SDS011;63121;51.458;-0.110;2022-09-20T00:37:53;6.45;;;2.65;;
74614;SDS011;63121;51.458;-0.110;2022-09-20T00:40:20;6.80;;;2.55;;
74614;SDS011;63121;51.458;-0.110;2022-09-20T00:42:47;8.77;;;3.42;;
74614;SDS011;63121;51.458;-0.110;2022-09-20T00:52:44;6.78;;;2.58;;
74614;SDS011;63121;51.458;-0.110;2022-09-20T00:55:13;7.70;;;2.53;;
74614;SDS011;63121;51.458;-0.110;2022-09-20T00:57:40;5.53;;;2.00;;
74614;SDS011;63121;51.458;-0.110;2022-09-20T01:00:09;7.82;;;2.60;;
74614;SDS011;63121;51.458;-0.110;2022-09-20T01:05:02;8.25;;;2.72;;
74614;SDS011;63121;51.458;-0.110;2022-09-20T01:07:28;6.75;;;2.50;;
74614;SDS011;63121;51.458;-0.110;2022-09-20T01:09:54;7.03;;;2.50;;
74614;SDS011;63121;51.458;-0.110;2022-09-20T01:12:20;7.78;;;2.38;;
74614;SDS011;63121;51.458;-0.110;2022-09-20T01:14:49;7.90;;;2.45;;
74614;SDS011;63121;51.458;-0.110;2022-09-20T01:17:15;6.38;;;2.55;;
74614;SDS011;63121;51.458;-0.110;2022-09-20T01:22:46;7.95;;;2.35;;
74614;SDS011;63121;51.458;-0.110;2022-09-20T01:27:51;7.53;;;2.63;;
74614;SDS011;63121;51.458;-0.110;2022-09-20T01:30:19;7.15;;;2.38;;
74614;SDS011;63121;51.458;-0.110;2022-09-20T01:32:48;7.63;;;2.70;;
74614;SDS011;63121;51.458;-0.110;2022-09-20T01:35:24;7.15;;;2.42;;
74614;SDS011;63121;51.458;-0.110;2022-09-20T01:46:03;7.10;;;2.33;;
74614;SDS011;63121;51.458;-0.110;2022-09-20T01:49:04;7.75;;;2.50;;
74614;SDS011;63121;51.458;-0.110;2022-09-20T02:11:05;7.07;;;2.45;;
74614;SDS011;63121;51.458;-0.110;2022-09-20T02:16:26;6.75;;;2.38;;
74614;SDS011;63121;51.458;-0.110;2022-09-20T02:24:28;8.25;;;2.97;;
74614;SDS011;63121;51.458;-0.110;2022-09-20T02:30:03;7.63;;;2.40;;
74614;SDS011;63121;51.458;-0.110;2022-09-20T02:50:10;7.55;;;2.35;;
74614;SDS011;63121;51.458;-0.110;2022-09-20T02:56:11;7.70;;;2.30;;
74614;SDS011;63121;51.458;-0.110;2022-09-20T02:58:56;7.57;;;2.85;;
74614;SDS011;63121;51.458;-0.110;2022-09-20T03:20:35;4.43;;;1.65;;
74614;SDS011;63121;51.458;-0.110;2022-09-20T03:25:45;6.78;;;1.50;;
74614;SDS011;63121;51.458;-0.110;2022-09-20T03:31:18;5.28;;;1.60;;
74614;SDS011;63121;51.458;-0.110;2022-09-20T03:42:01;5.90;;;1.60;;
74614;SDS011;63121;51.458;-0.110;2022-09-20T04:04:32;3.95;;;1.40;;
74614;SDS011;63121;51.458;-0.110;2022-09-20T04:07:11;5.82;;;1.80;;
74614;SDS011;63121;51.458;-0.110;2022-09-20T04:10:08;5.20;;;1.70;;
74614;SDS011;63121;51.458;-0.110;2022-09-20T04:12:35;3.13;;;1.33;;
74614;SDS011;63121;51.458;-0.110;2022-09-20T04:15:16;4.60;;;1.30;;
74614;SDS011;63121;51.458;-0.110;2022-09-20T04:26:17;7.72;;;1.92;;
74614;SDS011;63121;51.458;-0.110;2022-09-20T04:28:47;7.90;;;2.20;;
74614;SDS011;63121;51.458;-0.110;2022-09-20T04:33:49;6.63;;;1.90;;
74614;SDS011;63121;51.458;-0.110;2022-09-20T04:39:42;6.20;;;1.88;;
74614;SDS011;63121;51.458;-0.110;2022-09-20T04:44:54;5.47;;;1.58;;
74614;SDS011;63121;51.458;-0.110;2022-09-20T04:51:00;7.93;;;1.83;;
74614;SDS011;63121;51.458;-0.110;2022-09-20T05:08:16;7.25;;;2.40;;
74614;SDS011;63121;51.458;-0.110;2022-09-20T05:27:42;5.65;;;2.05;;
74614;SDS011;63121;51.458;-0.110;2022-09-20T05:38:18;7.97;;;2.15;;
74614;SDS011;63121;51.458;-0.110;2022-09-20T05:43:52;7.32;;;2.17;;
74614;SDS011;63121;51.458;-0.110;2022-09-20T05:49:23;6.60;;;2.20;;
74614;SDS011;63121;51.458;-0.110;2022-09-20T05:54:45;6.32;;;1.90;;
74614;SDS011;63121;51.458;-0.110;2022-09-20T06:00:10;7.38;;;2.35;;
74614;SDS011;63121;51.458;-0.110;2022-09-20T06:02:58;7.18;;;2.25;;
74614;SDS011;63121;51.458;-0.110;2022-09-20T06:05:31;8.73;;;2.65;;
74614;SDS011;63121;51.458;-0.110;2022-09-20T06:13:40;7.35;;;2.40;;
74614;SDS011;63121;51.458;-0.110;2022-09-20T06:16:38;7.13;;;2.10;;
74614;SDS011;63121;51.458;-0.110;2022-09-20T06:19:12;6.47;;;2.13;;
74614;SDS011;63121;51.458;-0.110;2022-09-20T06:24:24;8.52;;;2.42;;
74614;SDS011;63121;51.458;-0.110;2022-09-20T06:26:57;8.43;;;2.80;;
74614;SDS011;63121;51.458;-0.110;2022-09-20T06:29:31;7.75;;;2.15;;
74614;SDS011;63121;51.458;-0.110;2022-09-20T06:31:59;9.88;;;2.45;;
74614;SDS011;63121;51.458;-0.110;2022-09-20T06:34:26;8.88;;;2.95;;
74614;SDS011;63121;51.458;-0.110;2022-09-20T06:37:38;8.07;;;2.90;;
74614;SDS011;63121;51.458;-0.110;2022-09-20T06:40:02;8.32;;;2.67;;
74614;SDS011;63121;51.458;-0.110;2022-09-20T06:42:52;7.18;;;2.70;;
74614;SDS011;63121;51.458;-0.110;2022-09-20T06:45:18;8.68;;;2.92;;
74614;SDS011;63121;51.458;-0.110;2022-09-20T06:47:44;8.87;;;2.87;;
74614;SDS011;63121;51.458;-0.110;2022-09-20T06:50:16;8.82;;;2.78;;
74614;SDS011;63121;51.458;-0.110;2022-09-20T06:52:42;8.65;;;3.00;;
74614;SDS011;63121;51.458;-0.110;2022-09-20T06:57:42;8.23;;;2.72;;
74614;SDS011;63121;51.458;-0.110;2022-09-20T07:00:08;10.50;;;2.92;;
74614;SDS011;63121;51.458;-0.110;2022-09-20T07:02:37;8.27;;;3.22;;
74614;SDS011;63121;51.458;-0.110;2022-09-20T07:05:03;11.85;;;3.47;;
74614;SDS011;63121;51.458;-0.110;2022-09-20T07:07:30;9.00;;;2.92;;
74614;SDS011;63121;51.458;-0.110;2022-09-20T07:09:55;12.83;;;3.57;;
74614;SDS011;63121;51.458;-0.110;2022-09-20T07:12:22;7.75;;;2.80;;
74614;SDS011;63121;51.458;-0.110;2022-09-20T07:14:48;9.70;;;2.97;;
74614;SDS011;63121;51.458;-0.110;2022-09-20T07:17:14;9.65;;;3.42;;
74614;SDS011;63121;51.458;-0.110;2022-09-20T07:19:40;9.43;;;3.33;;
74614;SDS011;63121;51.458;-0.110;2022-09-20T07:22:05;8.50;;;3.30;;
74614;SDS011;63121;51.458;-0.110;2022-09-20T07:24:31;9.88;;;3.67;;
74614;SDS011;63121;51.458;-0.110;2022-09-20T07:27:05;8.63;;;3.37;;
74614;SDS011;63121;51.458;-0.110;2022-09-20T07:29:31;8.63;;;3.28;;
74614;SDS011;63121;51.458;-0.110;2022-09-20T07:31:59;10.20;;;4.10;;
74614;SDS011;63121;51.458;-0.110;2022-09-20T07:34:24;10.65;;;4.22;;
74614;SDS011;63121;51.458;-0.110;2022-09-20T07:36:51;10.27;;;4.20;;
74614;SDS011;63121;51.458;-0.110;2022-09-20T07:39:17;10.48;;;3.75;;
74614;SDS011;63121;51.458;-0.110;2022-09-20T07:41:42;10.25;;;4.72;;
74614;SDS011;63121;51.458;-0.110;2022-09-20T07:44:12;11.02;;;4.28;;
74614;SDS011;63121;51.458;-0.110;2022-09-20T07:46:55;11.27;;;4.47;;
74614;SDS011;63121;51.458;-0.110;2022-09-20T07:49:23;12.95;;;4.53;;
74614;SDS011;63121;51.458;-0.110;2022-09-20T07:54:16;12.25;;;4.50;;
74614;SDS011;63121;51.458;-0.110;2022-09-20T07:56:42;16.50;;;4.88;;
74614;SDS011;63121;51.458;-0.110;2022-09-20T07:59:07;12.80;;;4.80;;
74614;SDS011;63121;51.458;-0.110;2022-09-20T08:01:34;11.95;;;4.93;;
74614;SDS011;63121;51.458;-0.110;2022-09-20T08:04:00;11.55;;;4.70;;
74614;SDS011;63121;51.458;-0.110;2022-09-20T08:06:25;11.13;;;4.55;;
74614;SDS011;63121;51.458;-0.110;2022-09-20T08:08:51;10.23;;;4.25;;
74614;SDS011;63121;51.458;-0.110;2022-09-20T08:11:18;11.98;;;4.63;;
74614;SDS011;63121;51.458;-0.110;2022-09-20T08:13:47;12.75;;;4.97;;
74614;SDS011;63121;51.458;-0.110;2022-09-20T08:16:14;12.45;;;4.90;;
74614;SDS011;63121;51.458;-0.110;2022-09-20T08:18:47;12.05;;;4.57;;
74614;SDS011;63121;51.458;-0.110;2022-09-20T08:21:19;10.68;;;4.75;;
74614;SDS011;63121;51.458;-0.110;2022-09-20T08:23:44;11.00;;;4.43;;
74614;SDS011;63121;51.458;-0.110;2022-09-20T08:26:12;10.15;;;4.28;;
74614;SDS011;63121;51.458;-0.110;2022-09-20T08:28:41;12.27;;;4.55;;
74614;SDS011;63121;51.458;-0.110;2022-09-20T08:31:09;11.77;;;4.82;;
74614;SDS011;63121;51.458;-0.110;2022-09-20T08:33:40;11.68;;;4.20;;
74614;SDS011;63121;51.458;-0.110;2022-09-20T08:36:07;10.93;;;4.50;;
74614;SDS011;63121;51.458;-0.110;2022-09-20T08:38:36;13.40;;;4.53;;
74614;SDS011;63121;51.458;-0.110;2022-09-20T08:41:16;10.93;;;4.03;;
74614;SDS011;63121;51.458;-0.110;2022-09-20T08:46:23;9.60;;;3.72;;
74614;SDS011;63121;51.458;-0.110;2022-09-20T08:51:21;11.52;;;3.92;;
74614;SDS011;63121;51.458;-0.110;2022-09-20T08:53:48;11.05;;;3.97;;
74614;SDS011;63121;51.458;-0.110;2022-09-20T08:56:17;11.60;;;4.03;;
74614;SDS011;63121;51.458;-0.110;2022-09-20T08:58:43;10.60;;;4.45;;
74614;SDS011;63121;51.458;-0.110;2022-09-20T09:01:12;11.20;;;4.45;;
74614;SDS011;63121;51.458;-0.110;2022-09-20T09:03:49;15.63;;;4.88;;
74614;SDS011;63121;51.458;-0.110;2022-09-20T09:06:16;12.02;;;4.72;;
74614;SDS011;63121;51.458;-0.110;2022-09-20T09:08:44;12.38;;;4.15;;
74614;SDS011;63121;51.458;-0.110;2022-09-20T09:11:14;11.60;;;4.43;;
74614;SDS011;63121;51.458;-0.110;2022-09-20T09:16:19;10.68;;;4.90;;
74614;SDS011;63121;51.458;-0.110;2022-09-20T09:18:46;11.05;;;3.85;;
74614;SDS011;63121;51.458;-0.110;2022-09-20T09:21:25;11.23;;;4.22;;
74614;SDS011;63121;51.458;-0.110;2022-09-20T09:24:05;10.90;;;3.78;;
74614;SDS011;63121;51.458;-0.110;2022-09-20T09:26:40;10.45;;;3.75;;
74614;SDS011;63121;51.458;-0.110;2022-09-20T09:31:33;10.48;;;3.28;;
74614;SDS011;63121;51.458;-0.110;2022-09-20T09:33:59;9.85;;;4.15;;
74614;SDS011;63121;51.458;-0.110;2022-09-20T09:36:25;10.67;;;3.90;;
74614;SDS011;63121;51.458;-0.110;2022-09-20T09:39:13;10.35;;;3.50;;
74614;SDS011;63121;51.458;-0.110;2022-09-20T09:41:40;10.13;;;3.42;;
74614;SDS011;63121;51.458;-0.110;2022-09-20T09:44:15;3.00;;;1.10;;
74614;SDS011;63121;51.458;-0.110;2022-09-20T09:46:44;2.80;;;0.95;;
74614;SDS011;63121;51.458;-0.110;2022-09-20T09:52:12;5.68;;;1.05;;
74614;SDS011;63121;51.458;-0.110;2022-09-20T09:54:40;2.30;;;0.80;;
74614;SDS011;63121;51.458;-0.110;2022-09-20T10:00:21;2.67;;;0.90;;
74614;SDS011;63121;51.458;-0.110;2022-09-20T10:05:57;3.10;;;1.00;;
74614;SDS011;63121;51.458;-0.110;2022-09-20T10:08:40;3.45;;;0.95;;
74614;SDS011;63121;51.458;-0.110;2022-09-20T10:11:25;5.22;;;1.25;;
74614;SDS011;63121;51.458;-0.110;2022-09-20T10:22:00;4.05;;;1.20;;
74614;SDS011;63121;51.458;-0.110;2022-09-20T10:27:49;3.17;;;1.10;;
74614;SDS011;63121;51.458;-0.110;2022-09-20T10:30:53;3.00;;;1.15;;
74614;SDS011;63121;51.458;-0.110;2022-09-20T10:36:03;3.22;;;1.10;;
74614;SDS011;63121;51.458;-0.110;2022-09-20T10:44:09;3.65;;;1.33;;
74614;SDS011;63121;51.458;-0.110;2022-09-20T10:58:56;5.80;;;1.40;;
74614;SDS011;63121;51.458;-0.110;2022-09-20T11:09:30;2.75;;;1.00;;
74614;SDS011;63121;51.458;-0.110;2022-09-20T11:12:04;2.00;;;0.63;;
74614;SDS011;63121;51.458;-0.110;2022-09-20T11:14:38;2.67;;;0.90;;
74614;SDS011;63121;51.458;-0.110;2022-09-20T11:17:28;3.90;;;0.60;;
74614;SDS011;63121;51.458;-0.110;2022-09-20T11:22:39;3.17;;;1.00;;
74614;SDS011;63121;51.458;-0.110;2022-09-20T11:28:02;2.13;;;0.90;;
74614;SDS011;63121;51.458;-0.110;2022-09-20T11:30:37;2.88;;;1.10;;
74614;SDS011;63121;51.458;-0.110;2022-09-20T11:33:20;2.72;;;1.10;;
74614;SDS011;63121;51.458;-0.110;2022-09-20T11:35:51;4.78;;;1.20;;
74614;SDS011;63121;51.458;-0.110;2022-09-20T11:41:19;3.17;;;0.98;;
74614;SDS011;63121;51.458;-0.110;2022-09-20T11:43:50;2.58;;;0.90;;
74614;SDS011;63121;51.458;-0.110;2022-09-20T11:46:19;2.08;;;0.90;;
74614;SDS011;63121;51.458;-0.110;2022-09-20T11:48:53;2.17;;;0.90;;
74614;SDS011;63121;51.458;-0.110;2022-09-20T11:56:47;3.13;;;1.02;;
74614;SDS011;63121;51.458;-0.110;2022-09-20T11:59:34;4.45;;;1.13;;
74614;SDS011;63121;51.458;-0.110;2022-09-20T12:02:04;2.47;;;0.93;;
74614;SDS011;63121;51.458;-0.110;2022-09-20T12:04:42;3.33;;;1.00;;
74614;SDS011;63121;51.458;-0.110;2022-09-20T12:10:01;4.93;;;1.23;;
74614;SDS011;63121;51.458;-0.110;2022-09-20T12:12:38;4.55;;;1.27;;
74614;SDS011;63121;51.458;-0.110;2022-09-20T12:28:48;5.03;;;1.30;;
74614;SDS011;63121;51.458;-0.110;2022-09-20T12:31:36;4.72;;;1.30;;
74614;SDS011;63121;51.458;-0.110;2022-09-20T12:36:40;5.05;;;1.33;;
74614;SDS011;63121;51.458;-0.110;2022-09-20T12:47:22;3.55;;;1.02;;
74614;SDS011;63121;51.458;-0.110;2022-09-20T12:49:51;3.78;;;1.00;;
74614;SDS011;63121;51.458;-0.110;2022-09-20T12:52:38;4.15;;;1.05;;
74614;SDS011;63121;51.458;-0.110;2022-09-20T12:58:24;3.88;;;1.13;;
74614;SDS011;63121;51.458;-0.110;2022-09-20T13:11:17;4.15;;;1.10;;
74614;SDS011;63121;51.458;-0.110;2022-09-20T13:19:01;4.53;;;1.25;;
74614;SDS011;63121;51.458;-0.110;2022-09-20T13:21:31;5.70;;;1.20;;
74614;SDS011;63121;51.458;-0.110;2022-09-20T13:24:00;4.53;;;1.38;;
74614;SDS011;63121;51.458;-0.110;2022-09-20T13:26:28;4.20;;;1.25;;
74614;SDS011;63121;51.458;-0.110;2022-09-20T13:28:58;3.53;;;1.25;;
74614;SDS011;63121;51.458;-0.110;2022-09-20T13:33:51;2.72;;;1.15;;
74614;SDS011;63121;51.458;-0.110;2022-09-20T13:36:23;3.75;;;1.40;;
74614;SDS011;63121;51.458;-0.110;2022-09-20T13:38:52;4.85;;;1.30;;
74614;SDS011;63121;51.458;-0.110;2022-09-20T13:41:19;2.78;;;1.15;;
74614;SDS011;63121;51.458;-0.110;2022-09-20T13:43:45;4.65;;;1.40;;
74614;SDS011;63121;51.458;-0.110;2022-09-20T13:46:16;5.68;;;1.45;;
74614;SDS011;63121;51.458;-0.110;2022-09-20T13:51:33;4.57;;;1.45;;
74614;SDS011;63121;51.458;-0.110;2022-09-20T13:54:44;5.18;;;1.50;;
74614;SDS011;63121;51.458;-0.110;2022-09-20T13:56:51;5.40;;;1.58;;
74614;SDS011;63121;51.458;-0.110;2022-09-20T13:59:19;5.47;;;1.20;;
74614;SDS011;63121;51.458;-0.110;2022-09-20T14:01:50;3.58;;;1.20;;
74614;SDS011;63121;51.458;-0.110;2022-09-20T14:04:22;3.00;;;1.20;;
74614;SDS011;63121;51.458;-0.110;2022-09-20T14:06:49;4.80;;;1.30;;
74614;SDS011;63121;51.458;-0.110;2022-09-20T14:09:25;5.55;;;1.40;;
74614;SDS011;63121;51.458;-0.110;2022-09-20T14:11:56;4.25;;;1.30;;
74614;SDS011;63121;51.458;-0.110;2022-09-20T14:14:23;3.33;;;1.10;;
74614;SDS011;63121;51.458;-0.110;2022-09-20T14:16:49;4.72;;;1.27;;
74614;SDS011;63121;51.458;-0.110;2022-09-20T14:19:17;3.67;;;1.35;;
74614;SDS011;63121;51.458;-0.110;2022-09-20T14:21:45;3.55;;;1.40;;
74614;SDS011;63121;51.458;-0.110;2022-09-20T14:26:37;3.63;;;1.30;;
74614;SDS011;63121;51.458;-0.110;2022-09-20T14:32:03;6.18;;;1.40;;
74614;SDS011;63121;51.458;-0.110;2022-09-20T14:37:01;5.28;;;1.30;;
74614;SDS011;63121;51.458;-0.110;2022-09-20T14:39:30;3.97;;;1.30;;
74614;SDS011;63121;51.458;-0.110;2022-09-20T14:41:57;2.80;;;1.23;;
74614;SDS011;63121;51.458;-0.110;2022-09-20T14:44:29;4.20;;;1.30;;
74614;SDS011;63121;51.458;-0.110;2022-09-20T14:46:57;3.75;;;1.33;;
74614;SDS011;63121;51.458;-0.110;2022-09-20T14:51:48;4.10;;;1.10;;
74614;SDS011;63121;51.458;-0.110;2022-09-20T14:54:22;3.67;;;1.20;;
74614;SDS011;63121;51.458;-0.110;2022-09-20T14:56:54;3.45;;;1.20;;
74614;SDS011;63121;51.458;-0.110;2022-09-20T14:59:23;3.47;;;1.42;;
74614;SDS011;63121;51.458;-0.110;2022-09-20T15:01:58;3.78;;;1.20;;
74614;SDS011;63121;51.458;-0.110;2022-09-20T15:04:27;3.85;;;1.20;;
74614;SDS011;63121;51.458;-0.110;2022-09-20T15:06:55;4.93;;;1.40;;
74614;SDS011;63121;51.458;-0.110;2022-09-20T15:09:25;2.33;;;1.10;;
74614;SDS011;63121;51.458;-0.110;2022-09-20T15:14:25;4.38;;;1.20;;
74614;SDS011;63121;51.458;-0.110;2022-09-20T15:16:51;4.22;;;1.40;;
74614;SDS011;63121;51.458;-0.110;2022-09-20T15:19:16;5.03;;;1.47;;
74614;SDS011;63121;51.458;-0.110;2022-09-20T15:21:41;4.53;;;1.30;;
74614;SDS011;63121;51.458;-0.110;2022-09-20T15:24:07;4.75;;;1.30;;
74614;SDS011;63121;51.458;-0.110;2022-09-20T15:26:32;3.30;;;1.20;;
74614;SDS011;63121;51.458;-0.110;2022-09-20T15:28:58;3.28;;;1.13;;
74614;SDS011;63121;51.458;-0.110;2022-09-20T15:31:24;5.07;;;1.50;;
74614;SDS011;63121;51.458;-0.110;2022-09-20T15:36:16;4.17;;;1.40;;
74614;SDS011;63121;51.458;-0.110;2022-09-20T15:38:42;6.27;;;1.60;;
74614;SDS011;63121;51.458;-0.110;2022-09-20T15:41:07;4.95;;;1.60;;
74614;SDS011;63121;51.458;-0.110;2022-09-20T15:43:32;5.18;;;1.85;;
74614;SDS011;63121;51.458;-0.110;2022-09-20T15:46:19;6.90;;;1.60;;
74614;SDS011;63121;51.458;-0.110;2022-09-20T15:48:48;5.90;;;1.65;;
74614;SDS011;63121;51.458;-0.110;2022-09-20T15:51:14;4.15;;;1.50;;
74614;SDS011;63121;51.458;-0.110;2022-09-20T15:53:41;3.67;;;1.40;;
74614;SDS011;63121;51.458;-0.110;2022-09-20T15:56:16;6.00;;;1.50;;
74614;SDS011;63121;51.458;-0.110;2022-09-20T15:58:45;5.20;;;1.63;;
74614;SDS011;63121;51.458;-0.110;2022-09-20T16:01:15;5.78;;;1.70;;
74614;SDS011;63121;51.458;-0.110;2022-09-20T16:03:42;3.40;;;1.33;;
74614;SDS011;63121;51.458;-0.110;2022-09-20T16:06:09;4.00;;;1.30;;
74614;SDS011;63121;51.458;-0.110;2022-09-20T16:08:36;4.43;;;1.40;;
74614;SDS011;63121;51.458;-0.110;2022-09-20T16:11:03;5.68;;;1.52;;
74614;SDS011;63121;51.458;-0.110;2022-09-20T16:13:31;4.82;;;1.42;;
74614;SDS011;63121;51.458;-0.110;2022-09-20T16:15:57;5.50;;;1.52;;
74614;SDS011;63121;51.458;-0.110;2022-09-20T16:18:24;6.07;;;1.50;;
74614;SDS011;63121;51.458;-0.110;2022-09-20T16:21:09;7.10;;;1.40;;
74614;SDS011;63121;51.458;-0.110;2022-09-20T16:23:39;3.60;;;1.33;;
74614;SDS011;63121;51.458;-0.110;2022-09-20T16:26:08;5.18;;;1.50;;
74614;SDS011;63121;51.458;-0.110;2022-09-20T16:28:36;4.78;;;1.33;;
74614;SDS011;63121;51.458;-0.110;2022-09-20T16:31:02;6.43;;;1.50;;
74614;SDS011;63121;51.458;-0.110;2022-09-20T16:33:28;5.13;;;1.50;;
74614;SDS011;63121;51.458;-0.110;2022-09-20T16:35:54;4.10;;;1.30;;
74614;SDS011;63121;51.458;-0.110;2022-09-20T16:38:20;5.20;;;1.33;;
74614;SDS011;63121;51.458;-0.110;2022-09-20T16:40:47;4.15;;;1.40;;
74614;SDS011;63121;51.458;-0.110;2022-09-20T16:43:15;4.35;;;1.40;;
74614;SDS011;63121;51.458;-0.110;2022-09-20T16:45:47;4.60;;;1.40;;
74614;SDS011;63121;51.458;-0.110;2022-09-20T16:48:13;6.38;;;1.60;;
74614;SDS011;63121;51.458;-0.110;2022-09-20T16:50:38;4.00;;;1.30;;
74614;SDS011;63121;51.458;-0.110;2022-09-20T16:53:04;3.88;;;1.25;;
74614;SDS011;63121;51.458;-0.110;2022-09-20T16:55:29;6.00;;;1.77;;
74614;SDS011;63121;51.458;-0.110;2022-09-20T16:57:54;5.03;;;1.30;;
74614;SDS011;63121;51.458;-0.110;2022-09-20T17:00:20;4.65;;;1.50;;
74614;SDS011;63121;51.458;-0.110;2022-09-20T17:02:49;6.15;;;1.42;;
74614;SDS011;63121;51.458;-0.110;2022-09-20T17:05:15;6.68;;;1.85;;
74614;SDS011;63121;51.458;-0.110;2022-09-20T17:07:41;6.47;;;1.63;;
74614;SDS011;63121;51.458;-0.110;2022-09-20T17:10:08;7.47;;;2.95;;
74614;SDS011;63121;51.458;-0.110;2022-09-20T17:12:34;3.97;;;1.42;;
74614;SDS011;63121;51.458;-0.110;2022-09-20T17:15:05;4.18;;;1.45;;
74614;SDS011;63121;51.458;-0.110;2022-09-20T17:17:37;9.30;;;2.28;;
74614;SDS011;63121;51.458;-0.110;2022-09-20T17:20:02;5.03;;;1.40;;
74614;SDS011;63121;51.458;-0.110;2022-09-20T17:22:30;5.63;;;1.60;;
74614;SDS011;63121;51.458;-0.110;2022-09-20T17:24:55;4.47;;;1.40;;
74614;SDS011;63121;51.458;-0.110;2022-09-20T17:27:21;8.57;;;1.80;;
74614;SDS011;63121;51.458;-0.110;2022-09-20T17:29:48;3.92;;;1.33;;
74614;SDS011;63121;51.458;-0.110;2022-09-20T17:32:13;5.53;;;1.88;;
74614;SDS011;63121;51.458;-0.110;2022-09-20T17:34:39;5.70;;;1.70;;
74614;SDS011;63121;51.458;-0.110;2022-09-20T17:37:04;4.97;;;1.60;;
74614;SDS011;63121;51.458;-0.110;2022-09-20T17:39:30;5.00;;;1.70;;
74614;SDS011;63121;51.458;-0.110;2022-09-20T17:41:55;7.57;;;1.73;;
74614;SDS011;63121;51.458;-0.110;2022-09-20T17:44:21;5.63;;;1.70;;
74614;SDS011;63121;51.458;-0.110;2022-09-20T17:46:47;8.15;;;1.83;;
74614;SDS011;63121;51.458;-0.110;2022-09-20T17:49:17;7.68;;;1.50;;
74614;SDS011;63121;51.458;-0.110;2022-09-20T17:51:44;6.05;;;1.60;;
74614;SDS011;63121;51.458;-0.110;2022-09-20T17:54:19;7.43;;;1.90;;
74614;SDS011;63121;51.458;-0.110;2022-09-20T17:56:49;5.82;;;1.55;;
74614;SDS011;63121;51.458;-0.110;2022-09-20T17:59:17;4.93;;;1.50;;
74614;SDS011;63121;51.458;-0.110;2022-09-20T18:04:10;5.65;;;1.60;;
74614;SDS011;63121;51.458;-0.110;2022-09-20T18:09:07;7.15;;;1.70;;
74614;SDS011;63121;51.458;-0.110;2022-09-20T18:11:37;7.53;;;1.88;;
74614;SDS011;63121;51.458;-0.110;2022-09-20T18:14:06;6.20;;;1.60;;
74614;SDS011;63121;51.458;-0.110;2022-09-20T18:16:34;7.18;;;1.67;;
74614;SDS011;63121;51.458;-0.110;2022-09-20T18:21:27;4.73;;;1.57;;
74614;SDS011;63121;51.458;-0.110;2022-09-20T18:23:53;6.53;;;1.77;;
74614;SDS011;63121;51.458;-0.110;2022-09-20T18:26:22;6.18;;;1.80;;
74614;SDS011;63121;51.458;-0.110;2022-09-20T18:28:49;7.15;;;2.10;;
74614;SDS011;63121;51.458;-0.110;2022-09-20T18:31:20;4.07;;;1.40;;
74614;SDS011;63121;51.458;-0.110;2022-09-20T18:33:47;5.75;;;1.92;;
74614;SDS011;63121;51.458;-0.110;2022-09-20T18:36:16;5.50;;;1.77;;
74614;SDS011;63121;51.458;-0.110;2022-09-20T18:38:42;5.43;;;1.70;;
74614;SDS011;63121;51.458;-0.110;2022-09-20T18:41:10;6.47;;;1.83;;
74614;SDS011;63121;51.458;-0.110;2022-09-20T18:43:38;5.00;;;1.70;;
74614;SDS011;63121;51.458;-0.110;2022-09-20T18:46:09;5.47;;;1.85;;
74614;SDS011;63121;51.458;-0.110;2022-09-20T18:48:35;6.55;;;1.83;;
74614;SDS011;63121;51.458;-0.110;2022-09-20T18:51:03;5.88;;;1.70;;
74614;SDS011;63121;51.458;-0.110;2022-09-20T18:53:30;6.50;;;1.80;;
74614;SDS011;63121;51.458;-0.110;2022-09-20T18:56:06;6.05;;;1.63;;
74614;SDS011;63121;51.458;-0.110;2022-09-20T18:58:34;7.10;;;1.70;;
74614;SDS011;63121;51.458;-0.110;2022-09-20T19:09:44;7.10;;;1.92;;
74614;SDS011;63121;51.458;-0.110;2022-09-20T19:12:30;6.45;;;2.05;;
74614;SDS011;63121;51.458;-0.110;2022-09-20T19:26:33;7.85;;;2.20;;
74614;SDS011;63121;51.458;-0.110;2022-09-20T19:29:03;7.53;;;2.20;;
74614;SDS011;63121;51.458;-0.110;2022-09-20T19:31:36;6.88;;;2.08;;
74614;SDS011;63121;51.458;-0.110;2022-09-20T19:34:03;6.07;;;2.03;;
74614;SDS011;63121;51.458;-0.110;2022-09-20T19:45:12;9.60;;;2.80;;
74614;SDS011;63121;51.458;-0.110;2022-09-20T19:47:52;8.77;;;2.58;;
74614;SDS011;63121;51.458;-0.110;2022-09-20T19:52:57;7.85;;;2.33;;
74614;SDS011;63121;51.458;-0.110;2022-09-20T19:55:23;8.27;;;2.47;;
74614;SDS011;63121;51.458;-0.110;2022-09-20T19:57:49;8.52;;;2.47;;
74614;SDS011;63121;51.458;-0.110;2022-09-20T20:00:16;7.32;;;2.30;;
74614;SDS011;63121;51.458;-0.110;2022-09-20T20:02:43;8.05;;;2.60;;
74614;SDS011;63121;51.458;-0.110;2022-09-20T20:05:10;7.30;;;2.40;;
74614;SDS011;63121;51.458;-0.110;2022-09-20T20:07:42;6.90;;;2.47;;
74614;SDS011;63121;51.458;-0.110;2022-09-20T20:10:22;9.75;;;2.92;;
74614;SDS011;63121;51.458;-0.110;2022-09-20T20:13:04;11.70;;;4.13;;
74614;SDS011;63121;51.458;-0.110;2022-09-20T20:16:14;11.57;;;3.97;;
74614;SDS011;63121;51.458;-0.110;2022-09-20T20:18:52;12.90;;;4.30;;
74614;SDS011;63121;51.458;-0.110;2022-09-20T20:27:07;12.45;;;4.18;;
74614;SDS011;63121;51.458;-0.110;2022-09-20T20:29:32;15.57;;;5.10;;
74614;SDS011;63121;51.458;-0.110;2022-09-20T20:31:58;11.93;;;4.43;;
74614;SDS011;63121;51.458;-0.110;2022-09-20T20:34:23;10.83;;;4.33;;
74614;SDS011;63121;51.458;-0.110;2022-09-20T20:36:50;12.63;;;4.30;;
74614;SDS011;63121;51.458;-0.110;2022-09-20T20:39:20;16.58;;;4.10;;
74614;SDS011;63121;51.458;-0.110;2022-09-20T20:41:45;11.52;;;4.07;;
74614;SDS011;63121;51.458;-0.110;2022-09-20T20:44:16;11.63;;;4.05;;
74614;SDS011;63121;51.458;-0.110;2022-09-20T20:46:43;12.50;;;3.58;;
74614;SDS011;63121;51.458;-0.110;2022-09-20T20:49:08;10.45;;;3.60;;
74614;SDS011;63121;51.458;-0.110;2022-09-20T20:51:33;14.63;;;3.83;;
74614;SDS011;63121;51.458;-0.110;2022-09-20T20:53:59;10.68;;;3.13;;
74614;SDS011;63121;51.458;-0.110;2022-09-20T20:56:27;10.55;;;3.75;;
74614;SDS011;63121;51.458;-0.110;2022-09-20T20:58:54;11.52;;;3.70;;
74614;SDS011;63121;51.458;-0.110;2022-09-20T21:01:26;12.93;;;4.47;;
74614;SDS011;63121;51.458;-0.110;2022-09-20T21:03:54;12.20;;;4.25;;
74614;SDS011;63121;51.458;-0.110;2022-09-20T21:06:22;12.13;;;3.65;;
74614;SDS011;63121;51.458;-0.110;2022-09-20T21:08:52;12.82;;;4.13;;
74614;SDS011;63121;51.458;-0.110;2022-09-20T21:11:21;9.55;;;3.35;;
74614;SDS011;63121;51.458;-0.110;2022-09-20T21:13:48;11.48;;;3.50;;
74614;SDS011;63121;51.458;-0.110;2022-09-20T21:16:16;11.30;;;3.53;;
74614;SDS011;63121;51.458;-0.110;2022-09-20T21:18:44;12.95;;;4.78;;
74614;SDS011;63121;51.458;-0.110;2022-09-20T21:23:46;13.45;;;4.45;;
74614;SDS011;63121;51.458;-0.110;2022-09-20T21:26:13;16.10;;;6.50;;
74614;SDS011;63121;51.458;-0.110;2022-09-20T21:28:58;14.75;;;6.13;;